»·PEaware :: N184CF KBFL-KMHV

N184CF :: KBFL-KMHV

FLIGHT INFORMATION

Flight Status: Arrived
Operator: Privately registered:
United States
More flights under this callsign
Pilot: Arik P. (45269)
Aircraft: Unknown
(P28)
More flights by this aircraft type
Origin: KBFL Meadows
United States
Destination: KMHV Mojave
United States
More flights between these airports :: More routes between these airports
Route:
File this flight plan on PilotEdge
Remarks:
Altitude:
(Current/Filed)
9,500ft
Speed:
(Current/Filed)
100kts
Departed: 01-Nov-23 03:42 PM
Arrived: 01-Nov-23 04:18 PM
Distance/Time
Traveled:
49nm/0:36
Distance/Time
To Go:
Arrived

Flight Plot

Page will automatically refresh every two minutes.


Map Options




Map Legend


Flown Route
Filed Route
Departure Airport
Arrival Airport
Navaid (VOR, NDB)
Fix

Horizontal Profiles

Position Reports

Time Latitude Longitude Heading Altitude Ground
Speed
01-Nov-23 15:29 35.428358 -119.045097 80 480ft 0kts
01-Nov-23 15:30 35.428358 -119.045097 80 480ft 0kts
01-Nov-23 15:31 35.428358 -119.045097 80 480ft 0kts
01-Nov-23 15:32 35.428358 -119.045097 80 480ft 0kts
01-Nov-23 15:33 35.428358 -119.045097 80 480ft 0kts
01-Nov-23 15:34 35.428358 -119.045097 80 480ft 0kts
01-Nov-23 15:35 35.428358 -119.045097 80 480ft 0kts
01-Nov-23 15:36 35.428358 -119.045097 80 480ft 0kts
01-Nov-23 15:37 35.428358 -119.045097 80 480ft 0kts
01-Nov-23 15:38 35.428358 -119.045097 80 480ft 0kts
01-Nov-23 15:39 35.426396 -119.044486 174 472ft 21kts
01-Nov-23 15:40 35.425751 -119.044701 236 471ft 0kts
01-Nov-23 15:41 35.429836 -119.051355 316 533ft 79kts
01-Nov-23 15:42 35.446677 -119.064539 40 1624ft 84kts
01-Nov-23 15:43 35.448437 -119.036874 92 2723ft 82kts
01-Nov-23 15:44 35.436358 -119.015261 132 3715ft 80kts
01-Nov-23 15:45 35.421719 -118.993760 125 4588ft 84kts
01-Nov-23 15:46 35.413782 -118.967392 95 5431ft 88kts
01-Nov-23 15:47 35.411017 -118.937296 92 6211ft 89kts
01-Nov-23 15:48 35.407696 -118.907222 129 7010ft 81kts
01-Nov-23 15:49 35.391045 -118.885792 119 7649ft 90kts
01-Nov-23 15:50 35.379894 -118.857883 118 8313ft 92kts
01-Nov-23 15:51 35.368765 -118.829854 118 8986ft 91kts
01-Nov-23 15:52 35.356767 -118.800590 119 9440ft 109kts
01-Nov-23 15:53 35.343266 -118.768116 117 9476ft 104kts
01-Nov-23 15:54 35.330273 -118.735986 118 9510ft 108kts
01-Nov-23 15:56 35.315411 -118.703206 120 9445ft 109kts
01-Nov-23 15:57 35.300414 -118.670503 120 9408ft 109kts
01-Nov-23 15:58 35.284790 -118.639187 123 9426ft 105kts
01-Nov-23 15:59 35.269570 -118.606820 120 9378ft 110kts
01-Nov-23 16:00 35.253390 -118.575372 129 9349ft 106kts
01-Nov-23 16:01 35.234141 -118.547559 132 9270ft 111kts
01-Nov-23 16:02 35.215970 -118.517653 127 9276ft 110kts
01-Nov-23 16:03 35.198119 -118.487954 127 9316ft 108kts
01-Nov-23 16:04 35.180772 -118.459189 127 9265ft 109kts
01-Nov-23 16:05 35.163074 -118.429725 127 8524ft 108kts
01-Nov-23 16:06 35.145537 -118.400583 127 7920ft 100kts
01-Nov-23 16:07 35.128744 -118.371995 126 7336ft 101kts
01-Nov-23 16:08 35.137453 -118.368646 239 7420ft 103kts
01-Nov-23 16:09 35.117646 -118.352246 121 7482ft 105kts
01-Nov-23 16:10 35.106597 -118.319245 108 6941ft 105kts
01-Nov-23 16:11 35.101595 -118.284180 106 6326ft 110kts
01-Nov-23 16:12 35.094152 -118.247890 101 5422ft 108kts
01-Nov-23 16:13 35.079635 -118.217991 120 4563ft 103kts
01-Nov-23 16:14 35.068162 -118.185627 123 3678ft 98kts
01-Nov-23 16:15 35.053377 -118.161344 133 3477ft 89kts
01-Nov-23 16:16 35.039243 -118.140637 135 3401ft 75kts
01-Nov-23 16:17 35.039266 -118.125496 326 3043ft 80kts
01-Nov-23 16:18 35.052237 -118.139953 316 2722ft 36kts
01-Nov-23 16:18 35.057450 -118.146669 303 2748ft 23kts
01-Nov-23 16:20 35.057568 -118.147839 263 2749ft 0kts
01-Nov-23 16:21 35.057594 -118.155560 268 2764ft 33kts
01-Nov-23 16:22 35.057167 -118.157923 85 2769ft 0kts
01-Nov-23 16:23 35.057167 -118.157923 85 2769ft 0kts

Navigation Log

Ident Type
Flight plan parsing failed, navigation log unavailable